createdAt,value
2023-03-05T00:01:22.809Z,50.76
2023-03-05T00:03:49.687Z,50.59
2023-03-05T00:06:17.491Z,50.92
2023-03-05T00:08:44.307Z,50.84
2023-03-05T00:11:13.305Z,51.08
2023-03-05T00:13:40.233Z,51.35
2023-03-05T00:16:09.841Z,51.10
2023-03-05T00:18:37.408Z,51.43
2023-03-05T00:21:05.860Z,51.08
2023-03-05T00:23:32.488Z,51.37
2023-03-05T00:26:03.611Z,51.37
2023-03-05T00:28:30.263Z,51.26
2023-03-05T00:31:00.730Z,51.57
2023-03-05T00:33:27.479Z,51.77
2023-03-05T00:35:54.445Z,51.36
2023-03-05T00:38:21.909Z,51.73
2023-03-05T00:40:50.706Z,51.76
2023-03-05T00:43:17.354Z,51.59
2023-03-05T00:45:43.957Z,51.59
2023-03-05T00:48:10.756Z,51.69
2023-03-05T00:50:37.383Z,51.75
2023-03-05T00:53:04.003Z,52.23
2023-03-05T00:55:30.642Z,52.28
2023-03-05T00:57:57.349Z,52.35
2023-03-05T01:00:24.069Z,52.23
2023-03-05T01:02:50.697Z,52.33
2023-03-05T01:05:17.433Z,52.25
2023-03-05T01:07:44.135Z,52.22
2023-03-05T01:10:12.043Z,52.81
2023-03-05T01:12:39.537Z,52.55
2023-03-05T01:15:06.878Z,53.17
2023-03-05T01:17:33.526Z,52.80
2023-03-05T01:20:00.323Z,52.66
2023-03-05T01:22:27.034Z,53.13
2023-03-05T01:24:53.656Z,52.54
2023-03-05T01:27:20.352Z,52.39
2023-03-05T01:29:47.032Z,53.02
2023-03-05T01:32:13.732Z,53.07
2023-03-05T01:34:42.008Z,52.95
2023-03-05T01:37:09.389Z,52.98
2023-03-05T01:39:36.476Z,53.20
2023-03-05T01:42:04.207Z,53.52
2023-03-05T01:44:32.207Z,53.34
2023-03-05T01:46:58.881Z,53.04
2023-03-05T01:49:39.901Z,53.02
2023-03-05T01:52:19.820Z,53.06
2023-03-05T01:54:57.125Z,53.33
2023-03-05T01:57:29.035Z,53.35
2023-03-05T01:59:59.632Z,53.55
2023-03-05T02:02:26.364Z,53.53
2023-03-05T02:05:01.598Z,53.08
2023-03-05T02:07:30.801Z,53.26
2023-03-05T02:09:57.456Z,53.74
2023-03-05T02:12:24.302Z,53.51
2023-03-05T02:14:59.108Z,53.82
2023-03-05T02:17:28.466Z,53.87
2023-03-05T02:20:02.558Z,53.74
2023-03-05T02:22:29.196Z,54.23
2023-03-05T02:24:55.837Z,53.75
2023-03-05T02:27:34.814Z,53.68
2023-03-05T02:30:02.667Z,54.36
2023-03-05T02:32:29.647Z,54.31
2023-03-05T02:34:56.349Z,54.11
2023-03-05T02:37:22.981Z,54.60
2023-03-05T02:39:49.606Z,54.04
2023-03-05T02:42:16.286Z,54.77
2023-03-05T02:44:42.977Z,54.41
2023-03-05T02:47:09.579Z,54.42
2023-03-05T02:49:36.300Z,54.87
2023-03-05T02:52:03.051Z,54.54
2023-03-05T02:54:29.703Z,55.06
2023-03-05T02:56:56.314Z,55.15
2023-03-05T02:59:22.964Z,54.80
2023-03-05T03:01:49.617Z,55.15
2023-03-05T03:04:16.237Z,55.17
2023-03-05T03:06:42.855Z,55.31
2023-03-05T03:09:09.626Z,55.71
2023-03-05T03:11:36.339Z,55.13
2023-03-05T03:14:02.957Z,55.37
2023-03-05T03:16:29.619Z,55.67
2023-03-05T03:18:56.327Z,55.49
2023-03-05T03:21:25.348Z,55.39
2023-03-05T03:23:52.014Z,55.03
2023-03-05T03:26:19.223Z,55.62
2023-03-05T03:28:45.965Z,55.83
2023-03-05T03:31:12.732Z,55.58
2023-03-05T03:33:39.433Z,55.92
2023-03-05T03:36:06.546Z,55.79
2023-03-05T03:38:33.216Z,55.42
2023-03-05T03:40:59.909Z,56.05
2023-03-05T03:43:26.575Z,55.91
2023-03-05T03:45:53.302Z,55.65
2023-03-05T03:48:19.988Z,56.18
2023-03-05T03:50:46.605Z,56.24
2023-03-05T03:53:14.419Z,56.06
2023-03-05T03:55:42.907Z,55.92
2023-03-05T03:58:10.382Z,56.23
2023-03-05T04:00:37.101Z,56.67
2023-03-05T04:03:04.058Z,56.48
2023-03-05T04:05:30.800Z,56.71
2023-03-05T04:07:58.562Z,56.53
2023-03-05T04:10:25.856Z,57.13
2023-03-05T04:12:52.653Z,56.84
2023-03-05T04:15:19.608Z,57.01
2023-03-05T04:17:46.238Z,56.96
2023-03-05T04:20:13.317Z,57.35
2023-03-05T04:22:39.996Z,56.98
2023-03-05T04:25:08.415Z,57.42
2023-03-05T04:27:36.135Z,56.88
2023-03-05T04:30:02.761Z,57.27
2023-03-05T04:32:30.034Z,57.20
2023-03-05T04:34:57.709Z,56.60
2023-03-05T04:37:26.441Z,57.39
2023-03-05T04:39:53.400Z,57.53
2023-03-05T04:42:21.183Z,57.16
2023-03-05T04:44:49.624Z,57.49
2023-03-05T04:47:17.236Z,57.26
2023-03-05T04:49:44.598Z,57.21
2023-03-05T04:52:12.783Z,57.38
2023-03-05T04:54:39.528Z,57.19
2023-03-05T04:57:06.539Z,57.59
2023-03-05T04:59:33.326Z,57.19
2023-03-05T05:02:00.030Z,57.30
2023-03-05T05:04:26.919Z,57.01
2023-03-05T05:06:56.188Z,57.33
2023-03-05T05:09:23.475Z,57.73
2023-03-05T05:11:50.204Z,57.48
2023-03-05T05:14:17.316Z,57.58
2023-03-05T05:16:44.144Z,57.67
2023-03-05T05:19:11.005Z,57.79
2023-03-05T05:21:38.101Z,58.08
2023-03-05T05:24:05.088Z,57.64
2023-03-05T05:26:31.718Z,57.91
2023-03-05T05:28:58.342Z,57.59
2023-03-05T05:31:25.152Z,57.39
2023-03-05T05:33:51.848Z,57.72
2023-03-05T05:36:19.433Z,58.01
2023-03-05T05:38:46.169Z,57.48
2023-03-05T05:41:15.304Z,58.17
2023-03-05T05:43:42.420Z,57.59
2023-03-05T05:46:13.217Z,58.05
2023-03-05T05:48:40.543Z,57.64
2023-03-05T05:51:14.945Z,57.88
2023-03-05T05:53:42.856Z,58.03
2023-03-05T05:56:12.170Z,58.18
2023-03-05T05:58:40.045Z,58.24
2023-03-05T06:01:17.790Z,58.16
2023-03-05T06:03:45.971Z,57.89
2023-03-05T06:06:15.238Z,58.06
2023-03-05T06:08:42.478Z,58.23
2023-03-05T06:11:09.510Z,58.06
2023-03-05T06:13:36.803Z,58.45
2023-03-05T06:16:08.014Z,58.03
2023-03-05T06:18:35.629Z,58.15
2023-03-05T06:21:05.342Z,58.37
2023-03-05T06:23:32.909Z,58.55
2023-03-05T06:26:01.900Z,57.94
2023-03-05T06:28:29.685Z,58.22
2023-03-05T06:31:04.876Z,57.66
2023-03-05T06:33:32.264Z,57.73
2023-03-05T06:35:59.364Z,57.86
2023-03-05T06:38:26.190Z,58.28
2023-03-05T06:40:52.830Z,57.96
2023-03-05T06:43:19.633Z,57.52
2023-03-05T06:45:46.450Z,58.01
2023-03-05T06:48:13.172Z,57.41
2023-03-05T06:50:39.906Z,57.59
2023-03-05T06:53:06.622Z,57.64
2023-03-05T06:55:39.723Z,58.08
2023-03-05T06:58:07.474Z,57.29
2023-03-05T07:00:34.342Z,57.48
2023-03-05T07:03:00.948Z,57.28
2023-03-05T07:05:27.624Z,57.27
2023-03-05T07:07:54.212Z,57.79
2023-03-05T07:10:20.866Z,57.71
2023-03-05T07:12:47.519Z,57.39
2023-03-05T07:15:14.157Z,57.78
2023-03-05T07:17:40.744Z,57.98
2023-03-05T07:20:08.440Z,57.43
2023-03-05T07:22:37.556Z,57.61
2023-03-05T07:25:04.849Z,57.85
2023-03-05T07:27:35.520Z,57.01
2023-03-05T07:30:02.212Z,57.62
2023-03-05T07:32:28.922Z,57.61
2023-03-05T07:34:55.580Z,56.87
2023-03-05T07:37:22.209Z,57.26
2023-03-05T07:39:50.311Z,56.95
2023-03-05T07:42:16.929Z,57.04
2023-03-05T07:44:43.552Z,56.37
2023-03-05T07:47:10.183Z,56.15
2023-03-05T07:49:36.990Z,56.74
2023-03-05T07:52:03.793Z,56.67
2023-03-05T07:54:30.434Z,56.20
2023-03-05T07:56:57.048Z,56.49
2023-03-05T07:59:23.686Z,55.68
2023-03-05T08:01:50.316Z,56.64
2023-03-05T08:04:17.073Z,56.48
2023-03-05T08:06:43.815Z,56.50
2023-03-05T08:09:10.497Z,56.74
2023-03-05T08:11:37.112Z,55.95
2023-03-05T08:14:04.603Z,56.27
2023-03-05T08:16:32.097Z,55.84
2023-03-05T08:18:59.677Z,56.08
2023-03-05T08:21:29.825Z,55.68
2023-03-05T08:23:58.060Z,55.37
2023-03-05T08:26:27.387Z,55.57
2023-03-05T08:28:54.945Z,55.82
2023-03-05T08:31:24.321Z,55.45
2023-03-05T08:33:52.951Z,55.56
2023-03-05T08:36:19.814Z,55.86
2023-03-05T08:38:48.474Z,55.39
2023-03-05T08:41:17.164Z,55.51
2023-03-05T08:43:44.267Z,55.67
2023-03-05T08:46:15.630Z,55.39
2023-03-05T08:48:42.836Z,55.45
2023-03-05T08:51:15.432Z,55.59
2023-03-05T08:53:43.742Z,55.33
2023-03-05T08:56:11.066Z,55.46
2023-03-05T08:58:38.128Z,55.29
2023-03-05T09:01:05.344Z,55.84
2023-03-05T09:03:32.482Z,55.84
2023-03-05T09:06:01.127Z,55.21
2023-03-05T09:08:29.032Z,55.17
2023-03-05T09:10:55.939Z,55.09
2023-03-05T09:13:22.850Z,55.16
2023-03-05T09:16:01.494Z,54.42
2023-03-05T09:18:28.223Z,54.44
2023-03-05T09:20:55.054Z,54.57
2023-03-05T09:23:22.605Z,54.27
2023-03-05T09:25:50.075Z,54.23
2023-03-05T09:28:17.079Z,54.06
2023-03-05T09:30:43.767Z,54.01
2023-03-05T09:33:11.917Z,53.93
2023-03-05T09:35:38.726Z,53.91
2023-03-05T09:38:05.501Z,53.46
2023-03-05T09:41:03.341Z,53.53
2023-03-05T09:43:36.023Z,53.08
2023-03-05T09:46:24.242Z,53.08
2023-03-05T09:48:53.296Z,53.42
2023-03-05T09:51:29.394Z,53.20
2023-03-05T09:54:01.672Z,53.29
2023-03-05T09:56:43.016Z,53.42
2023-03-05T09:59:24.861Z,53.38
2023-03-05T10:01:53.637Z,53.26
2023-03-05T10:04:29.025Z,52.96
2023-03-05T10:07:23.906Z,53.28
2023-03-05T10:10:01.219Z,52.57
2023-03-05T10:12:44.438Z,52.22
2023-03-05T10:15:16.563Z,52.35
2023-03-05T10:17:58.081Z,52.72
2023-03-05T10:20:34.395Z,52.43
2023-03-05T10:23:29.680Z,52.25
2023-03-05T10:26:15.051Z,52.25
2023-03-05T10:28:57.711Z,52.04
2023-03-05T10:31:41.201Z,52.34
2023-03-05T10:34:25.527Z,52.03
2023-03-05T10:36:52.099Z,52.26
2023-03-05T10:39:21.645Z,52.16
2023-03-05T10:41:53.227Z,51.62
2023-03-05T10:44:26.331Z,51.41
2023-03-05T10:46:58.777Z,51.84
2023-03-05T10:49:30.610Z,51.57
2023-03-05T10:52:18.094Z,50.87
2023-03-05T10:54:45.137Z,51.10
2023-03-05T10:57:19.417Z,50.97
2023-03-05T11:00:26.009Z,51.31
2023-03-05T11:03:07.960Z,50.75
2023-03-05T11:06:01.404Z,50.10
2023-03-05T11:08:34.720Z,50.33
2023-03-05T11:11:12.785Z,50.44
2023-03-05T11:14:00.840Z,50.03
2023-03-05T11:16:48.216Z,49.78
2023-03-05T11:19:20.790Z,49.77
2023-03-05T11:22:04.652Z,49.69
2023-03-05T11:24:31.250Z,50.01
2023-03-05T11:26:58.281Z,49.34
2023-03-05T11:29:27.922Z,49.19
2023-03-05T11:31:55.435Z,49.17
2023-03-05T11:34:31.573Z,49.13
2023-03-05T11:36:58.112Z,48.73
2023-03-05T11:39:26.158Z,48.66
2023-03-05T11:41:54.754Z,49.16
2023-03-05T11:44:25.065Z,49.08
2023-03-05T11:46:57.262Z,48.95
2023-03-05T11:49:27.295Z,49.13
2023-03-05T11:52:04.316Z,48.90
2023-03-05T11:54:40.459Z,49.33
2023-03-05T11:57:11.823Z,48.74
2023-03-05T11:59:41.462Z,48.96
2023-03-05T12:02:23.399Z,48.64
2023-03-05T12:04:51.410Z,49.22
2023-03-05T12:07:24.311Z,49.06
2023-03-05T12:09:53.349Z,49.19
2023-03-05T12:12:38.027Z,49.66
2023-03-05T12:15:32.671Z,49.69
2023-03-05T12:18:14.830Z,50.62
2023-03-05T12:20:59.890Z,50.94
2023-03-05T12:23:28.123Z,52.31
2023-03-05T12:25:57.920Z,53.14
2023-03-05T12:28:36.988Z,54.12
2023-03-05T12:31:06.281Z,54.40
2023-03-05T12:33:35.452Z,55.30
2023-03-05T12:36:17.374Z,55.56
2023-03-05T12:38:46.392Z,55.65
2023-03-05T12:41:22.187Z,56.40
2023-03-05T12:44:07.244Z,56.10
2023-03-05T12:46:37.419Z,56.18
2023-03-05T12:49:20.122Z,55.84
2023-03-05T12:51:52.133Z,55.65
2023-03-05T12:54:42.100Z,55.86
2023-03-05T12:57:19.867Z,55.70
2023-03-05T13:00:00.852Z,55.83
2023-03-05T13:02:34.487Z,56.21
2023-03-05T13:05:07.575Z,56.02
2023-03-05T13:07:34.290Z,56.34
2023-03-05T13:10:01.016Z,56.46
2023-03-05T13:12:29.755Z,56.28
2023-03-05T13:15:08.973Z,56.49
2023-03-05T13:17:54.285Z,56.58
2023-03-05T13:20:34.118Z,57.19
2023-03-05T13:23:24.795Z,57.13
2023-03-05T13:26:15.275Z,57.12
2023-03-05T13:28:45.032Z,57.25
2023-03-05T13:31:18.519Z,58.07
2023-03-05T13:33:55.951Z,57.99
2023-03-05T13:36:24.661Z,58.39
2023-03-05T13:38:52.370Z,58.80
2023-03-05T13:41:22.693Z,59.14
2023-03-05T13:44:01.244Z,59.48
2023-03-05T13:46:38.707Z,60.02
2023-03-05T13:49:19.428Z,60.43
2023-03-05T13:51:51.683Z,60.30
2023-03-05T13:54:18.960Z,60.40
2023-03-05T13:57:05.325Z,60.22
2023-03-05T13:59:39.010Z,60.28
2023-03-05T14:02:18.193Z,60.42
2023-03-05T14:04:46.493Z,59.99
2023-03-05T14:07:39.803Z,60.20
2023-03-05T14:10:29.381Z,60.02
2023-03-05T14:12:57.209Z,59.75
2023-03-05T14:15:33.886Z,59.71
2023-03-05T14:18:12.543Z,59.57
2023-03-05T14:20:41.136Z,59.26
2023-03-05T14:23:32.687Z,59.25
2023-03-05T14:26:36.398Z,59.02
2023-03-05T14:29:09.050Z,58.61
2023-03-05T14:31:46.308Z,58.30
2023-03-05T14:34:40.041Z,58.39
2023-03-05T14:37:18.544Z,58.44
2023-03-05T14:39:51.616Z,58.48
2023-03-05T14:42:25.809Z,58.30
2023-03-05T14:44:52.872Z,58.31
2023-03-05T14:47:19.544Z,58.52
2023-03-05T14:49:46.162Z,58.58
2023-03-05T14:52:17.768Z,58.49
2023-03-05T14:54:45.297Z,58.55
2023-03-05T14:57:32.479Z,58.54
2023-03-05T14:59:59.348Z,58.31
2023-03-05T15:02:27.579Z,58.26
2023-03-05T15:04:54.355Z,58.31
2023-03-05T15:07:29.147Z,58.20
2023-03-05T15:09:56.367Z,58.17
2023-03-05T15:12:24.766Z,57.97
2023-03-05T15:14:52.853Z,57.82
2023-03-05T15:17:30.930Z,57.81
2023-03-05T15:19:57.552Z,57.49
2023-03-05T15:22:24.176Z,57.28
2023-03-05T15:24:50.810Z,57.61
2023-03-05T15:27:17.569Z,57.58
2023-03-05T15:29:44.568Z,57.55
2023-03-05T15:32:11.234Z,57.44
2023-03-05T15:34:37.932Z,57.20
2023-03-05T15:37:05.003Z,57.18
2023-03-05T15:39:31.852Z,57.23
2023-03-05T15:41:58.857Z,57.30
2023-03-05T15:44:25.981Z,57.09
2023-03-05T15:46:53.392Z,57.03
2023-03-05T15:49:21.348Z,56.94
2023-03-05T15:51:47.996Z,57.16
2023-03-05T15:54:14.643Z,56.81
2023-03-05T15:56:42.202Z,56.54
2023-03-05T15:59:13.532Z,56.44
2023-03-05T16:01:42.848Z,56.44
2023-03-05T16:04:09.665Z,56.32
2023-03-05T16:06:36.902Z,56.15
2023-03-05T16:09:05.422Z,56.24
2023-03-05T16:11:39.536Z,56.42
2023-03-05T16:14:10.072Z,56.66
2023-03-05T16:16:38.408Z,56.58
2023-03-05T16:19:07.081Z,57.03
2023-03-05T16:21:33.773Z,57.24
2023-03-05T16:24:00.413Z,57.06
2023-03-05T16:26:27.179Z,57.17
2023-03-05T16:28:53.889Z,57.90
2023-03-05T16:31:20.524Z,58.53
2023-03-05T16:33:47.303Z,58.48
2023-03-05T16:36:25.754Z,58.45
2023-03-05T16:38:54.746Z,58.68
2023-03-05T16:41:24.369Z,58.53
2023-03-05T16:43:53.607Z,58.70
2023-03-05T16:46:20.871Z,58.83
2023-03-05T16:48:47.595Z,59.14
2023-03-05T16:51:14.994Z,59.81
2023-03-05T16:53:42.006Z,60.59
2023-03-05T16:56:10.217Z,60.26
2023-03-05T16:58:39.066Z,60.52
2023-03-05T17:01:11.264Z,60.71
2023-03-05T17:03:41.343Z,60.16
2023-03-05T17:06:10.064Z,60.54
2023-03-05T17:08:36.829Z,60.55
2023-03-05T17:11:03.599Z,60.89
2023-03-05T17:13:30.246Z,61.02
2023-03-05T17:15:57.605Z,61.61
2023-03-05T17:18:24.768Z,61.29
2023-03-05T17:20:51.712Z,61.96
2023-03-05T17:23:18.368Z,61.69
2023-03-05T17:25:45.088Z,62.07
2023-03-05T17:28:12.998Z,62.32
2023-03-05T17:30:39.645Z,62.43
2023-03-05T17:33:07.109Z,61.94
2023-03-05T17:35:35.314Z,62.55
2023-03-05T17:38:07.697Z,62.54
2023-03-05T17:40:34.476Z,62.47
2023-03-05T17:43:01.083Z,62.36
2023-03-05T17:45:27.807Z,62.43
2023-03-05T17:47:54.563Z,62.17
2023-03-05T17:50:21.312Z,62.58
2023-03-05T17:52:48.032Z,62.53
2023-03-05T17:55:17.283Z,62.33
2023-03-05T17:57:44.744Z,62.32
2023-03-05T18:00:16.991Z,62.92
2023-03-05T18:02:44.156Z,62.47
2023-03-05T18:05:11.772Z,62.43
2023-03-05T18:07:39.540Z,62.78
2023-03-05T18:10:08.841Z,62.41
2023-03-05T18:12:36.153Z,62.67
2023-03-05T18:15:04.601Z,62.58
2023-03-05T18:17:31.312Z,62.71
2023-03-05T18:19:57.964Z,62.65
2023-03-05T18:22:24.653Z,62.89
2023-03-05T18:24:51.297Z,62.44
2023-03-05T18:27:17.929Z,62.72
2023-03-05T18:29:44.576Z,62.96
2023-03-05T18:32:11.217Z,62.86
2023-03-05T18:34:37.889Z,62.50
2023-03-05T18:37:04.547Z,62.51
2023-03-05T18:39:33.488Z,62.41
2023-03-05T18:42:00.494Z,62.56
2023-03-05T18:44:27.222Z,62.78
2023-03-05T18:46:53.984Z,62.66
2023-03-05T18:49:20.656Z,62.64
2023-03-05T18:51:47.501Z,63.14
2023-03-05T18:54:14.164Z,62.99
2023-03-05T18:56:40.778Z,63.06
2023-03-05T18:59:07.483Z,62.79
2023-03-05T19:01:34.099Z,63.15
2023-03-05T19:04:00.886Z,63.26
2023-03-05T19:06:27.529Z,63.25
2023-03-05T19:08:57.419Z,63.84
2023-03-05T19:11:24.969Z,64.01
2023-03-05T19:13:52.292Z,63.16
2023-03-05T19:16:20.636Z,63.95
2023-03-05T19:19:02.458Z,63.27
2023-03-05T19:21:30.300Z,63.65
2023-03-05T19:23:56.976Z,63.66
2023-03-05T19:26:23.662Z,63.51
2023-03-05T19:28:50.373Z,63.67
2023-03-05T19:31:17.047Z,63.42
2023-03-05T19:33:43.689Z,63.97
2023-03-05T19:36:12.369Z,63.83
2023-03-05T19:38:39.457Z,63.77
2023-03-05T19:41:08.836Z,63.65
2023-03-05T19:43:35.477Z,63.53
2023-03-05T19:46:03.597Z,63.71
2023-03-05T19:48:31.217Z,63.95
2023-03-05T19:50:58.044Z,63.93
2023-03-05T19:53:24.932Z,63.85
2023-03-05T19:55:52.008Z,63.65
2023-03-05T19:58:18.957Z,64.40
2023-03-05T20:00:45.621Z,64.20
2023-03-05T20:03:12.328Z,63.91
2023-03-05T20:05:41.046Z,63.78
2023-03-05T20:08:07.857Z,64.63
2023-03-05T20:10:34.597Z,64.49
2023-03-05T20:13:01.820Z,64.52
2023-03-05T20:15:29.347Z,65.03
2023-03-05T20:17:57.417Z,65.34
2023-03-05T20:20:24.976Z,65.27
2023-03-05T20:22:51.637Z,65.44
2023-03-05T20:25:21.259Z,64.93
2023-03-05T20:27:48.139Z,65.27
2023-03-05T20:30:16.332Z,65.57
2023-03-05T20:32:43.027Z,66.02
2023-03-05T20:35:14.677Z,66.22
2023-03-05T20:37:49.334Z,66.25
2023-03-05T20:40:17.257Z,65.89
2023-03-05T20:42:44.477Z,66.11
2023-03-05T20:45:11.578Z,66.19
2023-03-05T20:47:41.021Z,66.22
2023-03-05T20:50:12.028Z,66.20
2023-03-05T20:52:38.947Z,66.04
2023-03-05T20:55:07.883Z,66.91
2023-03-05T20:57:34.732Z,66.84
2023-03-05T21:00:03.455Z,66.79
2023-03-05T21:02:30.383Z,66.54
2023-03-05T21:04:57.031Z,66.86
2023-03-05T21:07:25.876Z,67.26
2023-03-05T21:09:52.469Z,67.20
2023-03-05T21:12:19.160Z,67.43
2023-03-05T21:14:45.839Z,66.76
2023-03-05T21:17:12.498Z,67.40
2023-03-05T21:19:40.023Z,67.60
2023-03-05T21:22:06.693Z,67.27
2023-03-05T21:24:43.831Z,67.41
2023-03-05T21:27:10.704Z,66.90
2023-03-05T21:29:37.364Z,67.30
2023-03-05T21:32:04.364Z,67.52
2023-03-05T21:34:31.092Z,67.30
2023-03-05T21:36:57.783Z,67.82
2023-03-05T21:39:24.390Z,67.57
2023-03-05T21:41:51.028Z,67.96
2023-03-05T21:44:18.925Z,68.00
2023-03-05T21:46:45.553Z,67.52
2023-03-05T21:49:12.193Z,67.91
2023-03-05T21:51:49.545Z,67.81
2023-03-05T21:54:16.166Z,68.04
2023-03-05T21:56:42.840Z,67.38
2023-03-05T21:59:09.500Z,67.83
2023-03-05T22:01:36.103Z,68.10
2023-03-05T22:04:02.745Z,67.78
2023-03-05T22:06:29.484Z,67.83
2023-03-05T22:08:56.676Z,67.80
2023-03-05T22:11:23.683Z,67.92
2023-03-05T22:13:50.320Z,67.85
2023-03-05T22:16:27.716Z,67.77
2023-03-05T22:18:54.972Z,67.64
2023-03-05T22:21:26.476Z,68.23
2023-03-05T22:23:55.489Z,68.12
2023-03-05T22:26:22.126Z,67.63
2023-03-05T22:28:48.973Z,68.01
2023-03-05T22:31:23.256Z,67.82
2023-03-05T22:33:50.639Z,68.13
2023-03-05T22:36:17.357Z,67.99
2023-03-05T22:38:44.359Z,68.16
2023-03-05T22:41:14.182Z,68.24
2023-03-05T22:43:41.416Z,68.24
2023-03-05T22:46:13.747Z,67.96
2023-03-05T22:48:40.609Z,68.07
2023-03-05T22:51:09.103Z,68.27
2023-03-05T22:53:36.235Z,68.28
2023-03-05T22:56:10.930Z,68.58
2023-03-05T22:58:38.296Z,68.25
2023-03-05T23:01:26.115Z,68.20
2023-03-05T23:04:03.337Z,68.24
2023-03-05T23:06:30.179Z,68.23
2023-03-05T23:08:56.792Z,68.23
2023-03-05T23:11:23.608Z,68.03
2023-03-05T23:13:50.223Z,68.48
2023-03-05T23:16:16.863Z,68.21
2023-03-05T23:18:43.533Z,68.56
2023-03-05T23:21:10.171Z,68.76
2023-03-05T23:23:36.774Z,68.85
2023-03-05T23:26:03.500Z,69.07
2023-03-05T23:28:30.383Z,68.71
2023-03-05T23:30:57.732Z,68.95
2023-03-05T23:33:25.077Z,68.93
2023-03-05T23:35:57.684Z,69.11
2023-03-05T23:38:25.824Z,68.91
2023-03-05T23:40:55.224Z,68.72
2023-03-05T23:43:24.687Z,69.23
2023-03-05T23:45:55.253Z,68.89
2023-03-05T23:48:26.197Z,68.88
2023-03-05T23:50:53.116Z,69.52
2023-03-05T23:53:25.738Z,69.05
2023-03-05T23:55:52.487Z,69.57
2023-03-05T23:58:22.622Z,69.36
